Douglass, Texas
Current Conditions -  °F | °C
As of 6:15 AM on Sunday 23 Nov 2014 (Local Time) from KOCH Reporting Station
Overcast Overcast  
Wind Chill: 63°   Ceiling: 600
Heat Index: 63°   Visibility: 10mi
Dew Point: 59°   Wind: 9mph
Humidity: 88%   Direction: 230°SW
Pressure: 29.63"   Gusts: NA
Location:  31.67°N, 94.88°W
Report Text: KOCH 231215Z AUTO 23008KT 10SM OVC006 17/15 A2963 RMK AO1
Loading
Personal Weather Stations






























Interactive Weather Map New forecast layout! Learn more

10-Day Weather Forecast

Advertisements
Track Severe Weather on mobile